Da Costa, Texas
Current Conditions -  °F | °C
As of 12:51 PM on Sunday 23 Nov 2014 (Local Time) from KVCT Reporting Station
Clear Clear  
Wind Chill: 81°   Ceiling: Unl
Heat Index: 81°   Visibility: 10mi
Dew Point: 53°   Wind: 15mph
Humidity: 38%   Direction: 240°WSW
Pressure: 29.63"   Gusts: NA
Location:  28.7094°N, 97.0351°W
Report Text: KVCT 231851Z 24013KT 10SM CLR 27/12 A2963 RMK AO2 SLP033 T02720117
Loading
Personal Weather Stations






























Interactive Weather Map New forecast layout! Learn more

10-Day Weather Forecast

Advertisements
Track Severe Weather on mobile